sensor_id;sensor_type;location;lat;lon;timestamp;pressure;altitude;pressure_sealevel;temperature;humidity
11077;BME280;5591;42.626;23.380;2023-04-20T00:00:47;93821.59;;;11.81;100.00
11077;BME280;5591;42.626;23.380;2023-04-20T00:03:14;93821.78;;;11.99;100.00
11077;BME280;5591;42.626;23.380;2023-04-20T00:05:42;93822.38;;;12.01;100.00
11077;BME280;5591;42.626;23.380;2023-04-20T00:08:09;93817.72;;;12.03;100.00
11077;BME280;5591;42.626;23.380;2023-04-20T00:10:36;93802.97;;;11.96;100.00
11077;BME280;5591;42.626;23.380;2023-04-20T00:13:03;93820.16;;;11.92;100.00
11077;BME280;5591;42.626;23.380;2023-04-20T00:15:30;93810.63;;;11.97;100.00
11077;BME280;5591;42.626;23.380;2023-04-20T00:17:58;93813.47;;;12.02;100.00
11077;BME280;5591;42.626;23.380;2023-04-20T00:20:26;93811.63;;;12.09;100.00
11077;BME280;5591;42.626;23.380;2023-04-20T00:22:53;93807.88;;;11.79;100.00
11077;BME280;5591;42.626;23.380;2023-04-20T00:25:20;93814.53;;;11.82;100.00
11077;BME280;5591;42.626;23.380;2023-04-20T00:27:47;93798.13;;;11.93;100.00
11077;BME280;5591;42.626;23.380;2023-04-20T00:30:14;93801.72;;;12.11;100.00
11077;BME280;5591;42.626;23.380;2023-04-20T00:32:41;93790.22;;;11.86;100.00
11077;BME280;5591;42.626;23.380;2023-04-20T00:35:09;93782.78;;;11.77;100.00
11077;BME280;5591;42.626;23.380;2023-04-20T00:37:36;93814.75;;;11.74;100.00
11077;BME280;5591;42.626;23.380;2023-04-20T00:40:04;93780.56;;;11.80;100.00
11077;BME280;5591;42.626;23.380;2023-04-20T00:42:31;93778.34;;;11.77;100.00
11077;BME280;5591;42.626;23.380;2023-04-20T00:44:59;93801.22;;;11.64;100.00
11077;BME280;5591;42.626;23.380;2023-04-20T00:47:26;93798.16;;;11.73;100.00
11077;BME280;5591;42.626;23.380;2023-04-20T00:49:53;93762.81;;;11.56;100.00
11077;BME280;5591;42.626;23.380;2023-04-20T00:52:21;93800.81;;;11.67;100.00
11077;BME280;5591;42.626;23.380;2023-04-20T00:54:48;93776.34;;;11.73;100.00
11077;BME280;5591;42.626;23.380;2023-04-20T00:57:18;93793.91;;;11.72;100.00
11077;BME280;5591;42.626;23.380;2023-04-20T00:59:49;93773.31;;;11.43;100.00
11077;BME280;5591;42.626;23.380;2023-04-20T01:02:16;93781.19;;;11.37;100.00
11077;BME280;5591;42.626;23.380;2023-04-20T01:04:43;93783.66;;;11.32;100.00
11077;BME280;5591;42.626;23.380;2023-04-20T01:07:10;93778.94;;;11.53;100.00
11077;BME280;5591;42.626;23.380;2023-04-20T01:09:39;93788.06;;;11.38;100.00
11077;BME280;5591;42.626;23.380;2023-04-20T01:12:06;93791.72;;;11.24;100.00
11077;BME280;5591;42.626;23.380;2023-04-20T01:14:33;93788.09;;;11.18;100.00
11077;BME280;5591;42.626;23.380;2023-04-20T01:17:02;93790.91;;;11.10;100.00
11077;BME280;5591;42.626;23.380;2023-04-20T01:19:30;93788.88;;;11.06;100.00
11077;BME280;5591;42.626;23.380;2023-04-20T01:21:57;93785.03;;;11.28;100.00
11077;BME280;5591;42.626;23.380;2023-04-20T01:24:25;93796.16;;;11.17;100.00
11077;BME280;5591;42.626;23.380;2023-04-20T01:26:53;93767.91;;;11.19;100.00
11077;BME280;5591;42.626;23.380;2023-04-20T01:29:19;93788.28;;;11.36;100.00
11077;BME280;5591;42.626;23.380;2023-04-20T01:31:46;93787.28;;;11.37;100.00
11077;BME280;5591;42.626;23.380;2023-04-20T01:34:13;93793.94;;;11.07;100.00
11077;BME280;5591;42.626;23.380;2023-04-20T01:36:42;93788.09;;;11.25;100.00
11077;BME280;5591;42.626;23.380;2023-04-20T01:39:09;93777.78;;;11.23;100.00
11077;BME280;5591;42.626;23.380;2023-04-20T01:41:37;93769.31;;;11.02;100.00
11077;BME280;5591;42.626;23.380;2023-04-20T01:44:04;93778.19;;;11.14;100.00
11077;BME280;5591;42.626;23.380;2023-04-20T01:46:31;93775.78;;;11.19;100.00
11077;BME280;5591;42.626;23.380;2023-04-20T01:48:58;93794.97;;;11.13;100.00
11077;BME280;5591;42.626;23.380;2023-04-20T01:51:24;93781.22;;;10.91;100.00
11077;BME280;5591;42.626;23.380;2023-04-20T01:53:52;93765.28;;;11.19;100.00
11077;BME280;5591;42.626;23.380;2023-04-20T01:59:42;93777.59;;;11.12;100.00
11077;BME280;5591;42.626;23.380;2023-04-20T02:02:09;93775.56;;;10.94;100.00
11077;BME280;5591;42.626;23.380;2023-04-20T02:04:35;93770.69;;;11.30;100.00
11077;BME280;5591;42.626;23.380;2023-04-20T02:07:02;93767.88;;;11.38;100.00
11077;BME280;5591;42.626;23.380;2023-04-20T02:09:29;93765.06;;;11.01;100.00
11077;BME280;5591;42.626;23.380;2023-04-20T02:11:56;93758.97;;;11.39;100.00
11077;BME280;5591;42.626;23.380;2023-04-20T02:14:22;93751.31;;;11.18;100.00
11077;BME280;5591;42.626;23.380;2023-04-20T02:16:51;93765.66;;;11.16;100.00
11077;BME280;5591;42.626;23.380;2023-04-20T02:19:18;93772.94;;;11.07;100.00
11077;BME280;5591;42.626;23.380;2023-04-20T02:21:45;93767.69;;;11.40;100.00
11077;BME280;5591;42.626;23.380;2023-04-20T02:24:12;93767.88;;;11.12;100.00
11077;BME280;5591;42.626;23.380;2023-04-20T02:26:39;93769.72;;;11.12;100.00
11077;BME280;5591;42.626;23.380;2023-04-20T02:29:05;93760.63;;;11.14;100.00
11077;BME280;5591;42.626;23.380;2023-04-20T02:31:32;93767.69;;;11.07;100.00
11077;BME280;5591;42.626;23.380;2023-04-20T02:34:00;93768.91;;;11.18;100.00
11077;BME280;5591;42.626;23.380;2023-04-20T02:36:30;93774.56;;;11.02;100.00
11077;BME280;5591;42.626;23.380;2023-04-20T02:38:57;93758.78;;;11.21;100.00
11077;BME280;5591;42.626;23.380;2023-04-20T02:41:23;93775.34;;;11.35;100.00
11077;BME280;5591;42.626;23.380;2023-04-20T02:43:50;93781.41;;;11.16;100.00
11077;BME280;5591;42.626;23.380;2023-04-20T02:46:17;93775.34;;;11.28;100.00
11077;BME280;5591;42.626;23.380;2023-04-20T02:48:44;93758.16;;;11.39;100.00
11077;BME280;5591;42.626;23.380;2023-04-20T02:51:12;93767.69;;;11.07;100.00
11077;BME280;5591;42.626;23.380;2023-04-20T02:53:39;93776.97;;;11.23;100.00
11077;BME280;5591;42.626;23.380;2023-04-20T02:56:06;93777.38;;;11.07;100.00
11077;BME280;5591;42.626;23.380;2023-04-20T02:58:32;93763.03;;;10.83;100.00
11077;BME280;5591;42.626;23.380;2023-04-20T03:01:00;93775.09;;;10.52;100.00
11077;BME280;5591;42.626;23.380;2023-04-20T03:03:28;93755.16;;;10.96;100.00
11077;BME280;5591;42.626;23.380;2023-04-20T03:05:55;93773.34;;;11.24;100.00
11077;BME280;5591;42.626;23.380;2023-04-20T03:08:23;93764.81;;;11.41;100.00
11077;BME280;5591;42.626;23.380;2023-04-20T03:10:50;93761.41;;;11.21;100.00
11077;BME280;5591;42.626;23.380;2023-04-20T03:13:17;93773.56;;;11.29;100.00
11077;BME280;5591;42.626;23.380;2023-04-20T03:15:44;93776.16;;;10.96;100.00
11077;BME280;5591;42.626;23.380;2023-04-20T03:18:10;93772.34;;;11.12;100.00
11077;BME280;5591;42.626;23.380;2023-04-20T03:20:37;93774.34;;;11.16;100.00
11077;BME280;5591;42.626;23.380;2023-04-20T03:23:04;93760.81;;;11.06;100.00
11077;BME280;5591;42.626;23.380;2023-04-20T03:25:32;93770.50;;;10.93;100.00
11077;BME280;5591;42.626;23.380;2023-04-20T03:27:59;93759.81;;;11.14;100.00
11077;BME280;5591;42.626;23.380;2023-04-20T03:30:26;93771.50;;;11.11;100.00
11077;BME280;5591;42.626;23.380;2023-04-20T03:32:53;93773.53;;;11.22;100.00
11077;BME280;5591;42.626;23.380;2023-04-20T03:35:20;93778.59;;;11.04;100.00
11077;BME280;5591;42.626;23.380;2023-04-20T03:37:47;93779.41;;;10.92;100.00
11077;BME280;5591;42.626;23.380;2023-04-20T03:40:13;93782.03;;;11.18;100.00
11077;BME280;5591;42.626;23.380;2023-04-20T03:42:41;93791.13;;;11.15;100.00
11077;BME280;5591;42.626;23.380;2023-04-20T03:45:09;93782.03;;;11.11;100.00
11077;BME280;5591;42.626;23.380;2023-04-20T03:47:36;93736.16;;;11.20;100.00
11077;BME280;5591;42.626;23.380;2023-04-20T03:50:03;93779.81;;;11.41;100.00
11077;BME280;5591;42.626;23.380;2023-04-20T03:52:30;93773.09;;;11.64;100.00
11077;BME280;5591;42.626;23.380;2023-04-20T03:54:57;93789.47;;;11.53;100.00
11077;BME280;5591;42.626;23.380;2023-04-20T03:57:24;93780.25;;;12.08;100.00
11077;BME280;5591;42.626;23.380;2023-04-20T03:59:52;93760.16;;;11.76;100.00
11077;BME280;5591;42.626;23.380;2023-04-20T04:02:19;93787.47;;;11.55;100.00
11077;BME280;5591;42.626;23.380;2023-04-20T04:04:46;93779.94;;;11.85;100.00
11077;BME280;5591;42.626;23.380;2023-04-20T04:07:13;93773.47;;;12.38;100.00
11077;BME280;5591;42.626;23.380;2023-04-20T04:09:40;93781.44;;;12.12;100.00
11077;BME280;5591;42.626;23.380;2023-04-20T04:12:07;93796.94;;;11.76;100.00
11077;BME280;5591;42.626;23.380;2023-04-20T04:14:34;93787.25;;;12.33;100.00
11077;BME280;5591;42.626;23.380;2023-04-20T04:17:02;93789.94;;;12.20;100.00
11077;BME280;5591;42.626;23.380;2023-04-20T04:19:29;93800.75;;;11.86;100.00
11077;BME280;5591;42.626;23.380;2023-04-20T04:21:55;93799.97;;;12.36;100.00
11077;BME280;5591;42.626;23.380;2023-04-20T04:24:22;93796.91;;;12.76;100.00
11077;BME280;5591;42.626;23.380;2023-04-20T04:26:49;93795.22;;;12.14;100.00
11077;BME280;5591;42.626;23.380;2023-04-20T04:29:16;93800.97;;;12.41;100.00
11077;BME280;5591;42.626;23.380;2023-04-20T04:31:43;93784.00;;;11.87;100.00
11077;BME280;5591;42.626;23.380;2023-04-20T04:34:11;93798.56;;;11.77;100.00
11077;BME280;5591;42.626;23.380;2023-04-20T04:36:38;93798.69;;;12.01;100.00
11077;BME280;5591;42.626;23.380;2023-04-20T04:39:05;93797.19;;;12.31;100.00
11077;BME280;5591;42.626;23.380;2023-04-20T04:41:31;93805.19;;;11.92;100.00
11077;BME280;5591;42.626;23.380;2023-04-20T04:43:58;93804.19;;;11.87;100.00
11077;BME280;5591;42.626;23.380;2023-04-20T04:46:25;93812.50;;;11.90;100.00
11077;BME280;5591;42.626;23.380;2023-04-20T04:48:53;93809.44;;;11.93;100.00
11077;BME280;5591;42.626;23.380;2023-04-20T04:51:22;93814.66;;;12.06;100.00
11077;BME280;5591;42.626;23.380;2023-04-20T04:53:49;93815.66;;;12.05;100.00
11077;BME280;5591;42.626;23.380;2023-04-20T04:56:15;93802.81;;;12.34;100.00
11077;BME280;5591;42.626;23.380;2023-04-20T04:58:43;93812.88;;;12.00;100.00
11077;BME280;5591;42.626;23.380;2023-04-20T05:01:09;93815.53;;;11.87;100.00
11077;BME280;5591;42.626;23.380;2023-04-20T05:03:36;93826.69;;;11.44;100.00
11077;BME280;5591;42.626;23.380;2023-04-20T05:06:03;93817.59;;;11.59;100.00
11077;BME280;5591;42.626;23.380;2023-04-20T05:08:32;93822.41;;;11.56;100.00
11077;BME280;5591;42.626;23.380;2023-04-20T05:10:59;93823.66;;;11.60;100.00
11077;BME280;5591;42.626;23.380;2023-04-20T05:13:25;93815.94;;;11.78;100.00
11077;BME280;5591;42.626;23.380;2023-04-20T05:15:52;93813.69;;;11.88;100.00
11077;BME280;5591;42.626;23.380;2023-04-20T05:18:19;93818.97;;;11.81;100.00
11077;BME280;5591;42.626;23.380;2023-04-20T05:20:46;93818.13;;;12.00;100.00
11077;BME280;5591;42.626;23.380;2023-04-20T05:23:13;93800.22;;;11.65;100.00
11077;BME280;5591;42.626;23.380;2023-04-20T05:25:41;93812.28;;;11.85;100.00
11077;BME280;5591;42.626;23.380;2023-04-20T05:28:08;93797.31;;;11.92;100.00
11077;BME280;5591;42.626;23.380;2023-04-20T05:30:35;93809.16;;;12.21;100.00
11077;BME280;5591;42.626;23.380;2023-04-20T05:33:02;93819.00;;;11.75;100.00
11077;BME280;5591;42.626;23.380;2023-04-20T05:35:29;93810.25;;;12.00;100.00
11077;BME280;5591;42.626;23.380;2023-04-20T05:37:56;93821.50;;;12.20;100.00
11077;BME280;5591;42.626;23.380;2023-04-20T05:40:24;93817.03;;;12.21;100.00
11077;BME280;5591;42.626;23.380;2023-04-20T05:42:53;93829.63;;;12.12;100.00
11077;BME280;5591;42.626;23.380;2023-04-20T05:45:20;93802.88;;;12.22;100.00
11077;BME280;5591;42.626;23.380;2023-04-20T05:47:53;93837.78;;;11.85;100.00
11077;BME280;5591;42.626;23.380;2023-04-20T05:50:21;93830.25;;;12.01;100.00
11077;BME280;5591;42.626;23.380;2023-04-20T05:52:47;93829.91;;;11.85;100.00
11077;BME280;5591;42.626;23.380;2023-04-20T05:55:14;93845.38;;;12.19;100.00
11077;BME280;5591;42.626;23.380;2023-04-20T05:57:41;93831.22;;;12.13;100.00
11077;BME280;5591;42.626;23.380;2023-04-20T06:00:11;93836.38;;;11.82;100.00
11077;BME280;5591;42.626;23.380;2023-04-20T06:02:39;93815.66;;;12.05;100.00
11077;BME280;5591;42.626;23.380;2023-04-20T06:05:06;93834.81;;;12.32;100.00
11077;BME280;5591;42.626;23.380;2023-04-20T06:07:35;93813.28;;;11.91;100.00
11077;BME280;5591;42.626;23.380;2023-04-20T06:10:02;93826.25;;;11.86;100.00
11077;BME280;5591;42.626;23.380;2023-04-20T06:12:29;93829.84;;;11.98;100.00
11077;BME280;5591;42.626;23.380;2023-04-20T06:14:56;93828.66;;;12.00;100.00
11077;BME280;5591;42.626;23.380;2023-04-20T06:17:24;93833.50;;;11.97;100.00
11077;BME280;5591;42.626;23.380;2023-04-20T06:19:51;93838.72;;;12.10;100.00
11077;BME280;5591;42.626;23.380;2023-04-20T06:22:18;93831.28;;;11.81;100.00
11077;BME280;5591;42.626;23.380;2023-04-20T06:24:45;93837.16;;;11.89;100.00
11077;BME280;5591;42.626;23.380;2023-04-20T06:27:12;93830.16;;;12.27;100.00
11077;BME280;5591;42.626;23.380;2023-04-20T06:29:39;93840.25;;;12.43;100.00
11077;BME280;5591;42.626;23.380;2023-04-20T06:32:06;93806.84;;;11.80;100.00
11077;BME280;5591;42.626;23.380;2023-04-20T06:34:34;93837.19;;;12.46;100.00
11077;BME280;5591;42.626;23.380;2023-04-20T06:37:01;93833.13;;;12.43;100.00
11077;BME280;5591;42.626;23.380;2023-04-20T06:39:28;93841.25;;;12.42;100.00
11077;BME280;5591;42.626;23.380;2023-04-20T06:41:54;93842.38;;;12.09;100.00
11077;BME280;5591;42.626;23.380;2023-04-20T06:44:21;93868.94;;;11.75;100.00
11077;BME280;5591;42.626;23.380;2023-04-20T06:46:48;93839.69;;;12.22;100.00
11077;BME280;5591;42.626;23.380;2023-04-20T06:49:15;93843.78;;;12.18;100.00
11077;BME280;5591;42.626;23.380;2023-04-20T06:51:43;93855.31;;;12.17;100.00
11077;BME280;5591;42.626;23.380;2023-04-20T06:54:10;93853.44;;;12.30;100.00
11077;BME280;5591;42.626;23.380;2023-04-20T06:56:36;93858.34;;;12.07;100.00
11077;BME280;5591;42.626;23.380;2023-04-20T06:59:03;93859.22;;;11.75;100.00
11077;BME280;5591;42.626;23.380;2023-04-20T07:01:30;93864.88;;;11.98;100.00
11077;BME280;5591;42.626;23.380;2023-04-20T07:03:57;93815.38;;;11.63;100.00
11077;BME280;5591;42.626;23.380;2023-04-20T07:06:24;93863.19;;;12.17;100.00
11077;BME280;5591;42.626;23.380;2023-04-20T07:08:53;93856.13;;;12.04;100.00
11077;BME280;5591;42.626;23.380;2023-04-20T07:11:20;93874.16;;;12.14;100.00
11077;BME280;5591;42.626;23.380;2023-04-20T07:13:49;93878.03;;;11.59;100.00
11077;BME280;5591;42.626;23.380;2023-04-20T07:16:15;93877.78;;;12.06;100.00
11077;BME280;5591;42.626;23.380;2023-04-20T07:18:42;93879.81;;;12.04;100.00
11077;BME280;5591;42.626;23.380;2023-04-20T07:21:09;93845.59;;;12.11;100.00
11077;BME280;5591;42.626;23.380;2023-04-20T07:23:36;93858.19;;;12.59;100.00
11077;BME280;5591;42.626;23.380;2023-04-20T07:26:04;93862.72;;;12.39;100.00
11077;BME280;5591;42.626;23.380;2023-04-20T07:28:31;93864.41;;;13.15;100.00
11077;BME280;5591;42.626;23.380;2023-04-20T07:30:58;93860.75;;;13.16;100.00
11077;BME280;5591;42.626;23.380;2023-04-20T07:33:25;93837.53;;;13.00;100.00
11077;BME280;5591;42.626;23.380;2023-04-20T07:35:54;93865.03;;;13.66;100.00
11077;BME280;5591;42.626;23.380;2023-04-20T07:38:21;93860.03;;;13.33;100.00
11077;BME280;5591;42.626;23.380;2023-04-20T07:40:48;93851.78;;;12.42;100.00
11077;BME280;5591;42.626;23.380;2023-04-20T07:43:16;93869.06;;;12.69;100.00
11077;BME280;5591;42.626;23.380;2023-04-20T07:45:43;93841.41;;;12.97;100.00
11077;BME280;5591;42.626;23.380;2023-04-20T07:48:09;93827.03;;;13.24;100.00
11077;BME280;5591;42.626;23.380;2023-04-20T07:50:36;93855.50;;;13.65;100.00
11077;BME280;5591;42.626;23.380;2023-04-20T07:53:03;93856.53;;;13.08;100.00
11077;BME280;5591;42.626;23.380;2023-04-20T07:55:30;93861.44;;;12.98;100.00
11077;BME280;5591;42.626;23.380;2023-04-20T07:57:57;93858.47;;;13.19;100.00
11077;BME280;5591;42.626;23.380;2023-04-20T08:00:26;93853.06;;;13.14;100.00
11077;BME280;5591;42.626;23.380;2023-04-20T08:02:53;93862.19;;;13.12;100.00
11077;BME280;5591;42.626;23.380;2023-04-20T08:05:20;93843.19;;;13.59;100.00
11077;BME280;5591;42.626;23.380;2023-04-20T08:07:48;93853.38;;;13.55;100.00
11077;BME280;5591;42.626;23.380;2023-04-20T08:10:15;93848.72;;;12.95;100.00
11077;BME280;5591;42.626;23.380;2023-04-20T08:12:42;93858.66;;;13.24;100.00
11077;BME280;5591;42.626;23.380;2023-04-20T08:15:09;93852.28;;;13.63;100.00
11077;BME280;5591;42.626;23.380;2023-04-20T08:17:38;93862.97;;;13.68;100.00
11077;BME280;5591;42.626;23.380;2023-04-20T08:20:06;93863.06;;;14.04;96.99
11077;BME280;5591;42.626;23.380;2023-04-20T08:22:34;93847.38;;;13.42;99.70
11077;BME280;5591;42.626;23.380;2023-04-20T08:25:01;93857.19;;;14.62;93.29
11077;BME280;5591;42.626;23.380;2023-04-20T08:27:28;93842.09;;;14.09;93.61
11077;BME280;5591;42.626;23.380;2023-04-20T08:29:55;93850.47;;;14.06;97.73
11077;BME280;5591;42.626;23.380;2023-04-20T08:32:22;93843.56;;;14.05;97.33
11077;BME280;5591;42.626;23.380;2023-04-20T08:34:52;93870.34;;;14.08;96.89
11077;BME280;5591;42.626;23.380;2023-04-20T08:37:19;93866.50;;;13.62;98.84
11077;BME280;5591;42.626;23.380;2023-04-20T08:39:45;93784.66;;;13.01;100.00
11077;BME280;5591;42.626;23.380;2023-04-20T08:42:12;93862.44;;;14.08;99.19
11077;BME280;5591;42.626;23.380;2023-04-20T08:44:41;93867.59;;;13.97;100.00
11077;BME280;5591;42.626;23.380;2023-04-20T08:47:08;93900.75;;;14.89;94.69
11077;BME280;5591;42.626;23.380;2023-04-20T08:49:36;93853.72;;;14.62;92.45
11077;BME280;5591;42.626;23.380;2023-04-20T08:52:06;93863.78;;;14.35;96.04
11077;BME280;5591;42.626;23.380;2023-04-20T08:54:35;93822.72;;;14.39;93.40
11077;BME280;5591;42.626;23.380;2023-04-20T08:57:02;93814.47;;;14.11;93.86
11077;BME280;5591;42.626;23.380;2023-04-20T08:59:30;93859.91;;;14.38;95.10
11077;BME280;5591;42.626;23.380;2023-04-20T09:02:07;93848.53;;;14.19;95.53
11077;BME280;5591;42.626;23.380;2023-04-20T09:04:35;93861.47;;;14.27;95.68
11077;BME280;5591;42.626;23.380;2023-04-20T09:07:01;93844.28;;;14.72;91.85
11077;BME280;5591;42.626;23.380;2023-04-20T09:09:30;93850.97;;;14.39;95.78
11077;BME280;5591;42.626;23.380;2023-04-20T09:12:01;93862.69;;;14.61;97.17
11077;BME280;5591;42.626;23.380;2023-04-20T09:14:29;93864.00;;;14.70;94.99
11077;BME280;5591;42.626;23.380;2023-04-20T09:16:58;93778.53;;;13.56;97.02
11077;BME280;5591;42.626;23.380;2023-04-20T09:19:27;93876.53;;;14.92;92.20
11077;BME280;5591;42.626;23.380;2023-04-20T09:21:56;93859.00;;;14.80;91.24
11077;BME280;5591;42.626;23.380;2023-04-20T09:24:30;93861.38;;;15.58;86.51
11077;BME280;5591;42.626;23.380;2023-04-20T09:26:58;93866.34;;;15.07;86.36
11077;BME280;5591;42.626;23.380;2023-04-20T09:29:25;93863.88;;;15.23;87.82
11077;BME280;5591;42.626;23.380;2023-04-20T09:31:53;93851.72;;;14.93;89.80
11077;BME280;5591;42.626;23.380;2023-04-20T09:34:20;93838.47;;;14.64;90.13
11077;BME280;5591;42.626;23.380;2023-04-20T09:36:48;93852.19;;;14.54;92.31
11077;BME280;5591;42.626;23.380;2023-04-20T09:39:16;93861.63;;;14.80;89.19
11077;BME280;5591;42.626;23.380;2023-04-20T09:41:45;93850.72;;;15.05;87.16
11077;BME280;5591;42.626;23.380;2023-04-20T09:44:13;93863.81;;;15.30;84.76
11077;BME280;5591;42.626;23.380;2023-04-20T09:46:41;93848.50;;;15.61;81.35
11077;BME280;5591;42.626;23.380;2023-04-20T09:49:09;93837.47;;;15.87;78.94
11077;BME280;5591;42.626;23.380;2023-04-20T09:51:37;93850.69;;;14.94;83.34
11077;BME280;5591;42.626;23.380;2023-04-20T09:54:07;93849.63;;;15.13;85.83
11077;BME280;5591;42.626;23.380;2023-04-20T09:56:34;93836.41;;;15.24;85.75
11077;BME280;5591;42.626;23.380;2023-04-20T09:59:02;93842.13;;;15.39;86.11
11077;BME280;5591;42.626;23.380;2023-04-20T10:01:30;93837.00;;;16.25;77.55
11077;BME280;5591;42.626;23.380;2023-04-20T10:03:59;93838.63;;;16.03;78.50
11077;BME280;5591;42.626;23.380;2023-04-20T10:06:27;93846.22;;;15.65;78.80
11077;BME280;5591;42.626;23.380;2023-04-20T10:08:55;93832.66;;;16.07;79.10
11077;BME280;5591;42.626;23.380;2023-04-20T10:11:26;93830.66;;;16.49;74.78
11077;BME280;5591;42.626;23.380;2023-04-20T10:13:54;93836.09;;;15.85;79.63
11077;BME280;5591;42.626;23.380;2023-04-20T10:16:22;93825.25;;;16.32;75.29
11077;BME280;5591;42.626;23.380;2023-04-20T10:18:57;93830.09;;;16.86;69.98
11077;BME280;5591;42.626;23.380;2023-04-20T10:21:24;93824.38;;;16.38;72.67
11077;BME280;5591;42.626;23.380;2023-04-20T10:23:52;93828.03;;;15.91;74.68
11077;BME280;5591;42.626;23.380;2023-04-20T10:26:19;93824.59;;;15.91;76.29
11077;BME280;5591;42.626;23.380;2023-04-20T10:28:46;93837.38;;;16.05;75.53
11077;BME280;5591;42.626;23.380;2023-04-20T10:31:14;93815.47;;;16.44;72.06
11077;BME280;5591;42.626;23.380;2023-04-20T10:34:00;93806.09;;;17.81;65.37
11077;BME280;5591;42.626;23.380;2023-04-20T10:36:28;93824.31;;;16.50;69.33
11077;BME280;5591;42.626;23.380;2023-04-20T10:38:55;93812.50;;;16.80;73.48
11077;BME280;5591;42.626;23.380;2023-04-20T10:41:23;93813.81;;;17.83;66.03
11077;BME280;5591;42.626;23.380;2023-04-20T10:43:49;93787.25;;;18.32;62.73
11077;BME280;5591;42.626;23.380;2023-04-20T10:46:18;93813.69;;;18.27;61.56
11077;BME280;5591;42.626;23.380;2023-04-20T10:48:53;93811.56;;;16.47;66.79
11077;BME280;5591;42.626;23.380;2023-04-20T10:51:21;93816.56;;;16.71;67.84
11077;BME280;5591;42.626;23.380;2023-04-20T10:53:59;93818.50;;;16.13;71.95
11077;BME280;5591;42.626;23.380;2023-04-20T10:56:25;93812.72;;;17.35;66.31
11077;BME280;5591;42.626;23.380;2023-04-20T10:58:52;93809.88;;;17.36;66.78
11077;BME280;5591;42.626;23.380;2023-04-20T11:01:19;93816.06;;;16.86;68.79
11077;BME280;5591;42.626;23.380;2023-04-20T11:03:49;93819.47;;;16.98;65.79
11077;BME280;5591;42.626;23.380;2023-04-20T11:06:17;93804.28;;;17.21;66.65
11077;BME280;5591;42.626;23.380;2023-04-20T11:08:45;93793.38;;;17.06;64.08
11077;BME280;5591;42.626;23.380;2023-04-20T11:11:19;93798.22;;;16.81;66.57
11077;BME280;5591;42.626;23.380;2023-04-20T11:13:46;93802.66;;;16.92;67.42
11077;BME280;5591;42.626;23.380;2023-04-20T11:16:14;93798.81;;;17.28;64.30
11077;BME280;5591;42.626;23.380;2023-04-20T11:18:49;93784.84;;;17.32;65.53
11077;BME280;5591;42.626;23.380;2023-04-20T11:21:17;93799.75;;;17.50;63.51
11077;BME280;5591;42.626;23.380;2023-04-20T11:23:46;93789.53;;;17.42;60.94
11077;BME280;5591;42.626;23.380;2023-04-20T11:26:13;93807.41;;;17.35;60.86
11077;BME280;5591;42.626;23.380;2023-04-20T11:28:50;93792.19;;;18.88;58.31
11077;BME280;5591;42.626;23.380;2023-04-20T11:31:17;93773.38;;;20.11;52.50
11077;BME280;5591;42.626;23.380;2023-04-20T11:33:44;93789.97;;;19.28;52.80
11077;BME280;5591;42.626;23.380;2023-04-20T11:36:17;93750.41;;;18.41;53.90
11077;BME280;5591;42.626;23.380;2023-04-20T11:38:46;93788.13;;;18.21;56.82
11077;BME280;5591;42.626;23.380;2023-04-20T11:41:12;93777.16;;;17.47;57.81
11077;BME280;5591;42.626;23.380;2023-04-20T11:43:39;93788.09;;;17.51;59.00
11077;BME280;5591;42.626;23.380;2023-04-20T12:41:00;93580.22;;;13.84;80.29
11077;BME280;5591;42.626;23.380;2023-04-20T12:43:28;93592.56;;;14.01;80.95
11077;BME280;5591;42.626;23.380;2023-04-20T12:45:55;93743.22;;;14.88;84.93
11077;BME280;5591;42.626;23.380;2023-04-20T12:48:22;93769.06;;;15.27;88.84
11077;BME280;5591;42.626;23.380;2023-04-20T12:50:49;93785.94;;;15.14;93.20
11077;BME280;5591;42.626;23.380;2023-04-20T12:53:16;93768.91;;;15.51;90.81
11077;BME280;5591;42.626;23.380;2023-04-20T12:55:44;93771.41;;;15.46;86.80
11077;BME280;5591;42.626;23.380;2023-04-20T12:58:12;93751.75;;;15.54;82.68
11077;BME280;5591;42.626;23.380;2023-04-20T13:00:40;93718.03;;;15.95;79.83
11077;BME280;5591;42.626;23.380;2023-04-20T13:03:07;93769.44;;;17.01;74.72
11077;BME280;5591;42.626;23.380;2023-04-20T13:05:34;93766.44;;;16.70;74.17
11077;BME280;5591;42.626;23.380;2023-04-20T13:08:01;93763.75;;;17.09;69.79
11077;BME280;5591;42.626;23.380;2023-04-20T13:10:28;93632.63;;;16.00;67.77
11077;BME280;5591;42.626;23.380;2023-04-20T13:12:55;93753.94;;;16.82;67.03
11077;BME280;5591;42.626;23.380;2023-04-20T13:15:23;93744.75;;;18.16;63.96
11077;BME280;5591;42.626;23.380;2023-04-20T13:17:50;93763.06;;;18.34;66.26
11077;BME280;5591;42.626;23.380;2023-04-20T13:20:17;93764.69;;;18.56;67.25
11077;BME280;5591;42.626;23.380;2023-04-20T13:22:44;93764.06;;;18.49;72.78
11077;BME280;5591;42.626;23.380;2023-04-20T13:25:11;93748.19;;;18.16;77.18
11077;BME280;5591;42.626;23.380;2023-04-20T13:27:38;93759.44;;;17.85;79.38
11077;BME280;5591;42.626;23.380;2023-04-20T13:30:06;93769.31;;;17.24;77.25
11077;BME280;5591;42.626;23.380;2023-04-20T13:32:34;93770.31;;;17.07;81.33
11077;BME280;5591;42.626;23.380;2023-04-20T13:35:01;93765.94;;;17.29;78.67
11077;BME280;5591;42.626;23.380;2023-04-20T13:37:28;93754.13;;;17.85;75.50
11077;BME280;5591;42.626;23.380;2023-04-20T13:39:57;93767.47;;;18.07;77.10
11077;BME280;5591;42.626;23.380;2023-04-20T13:42:24;93763.66;;;18.03;76.55
11077;BME280;5591;42.626;23.380;2023-04-20T13:44:51;93769.38;;;18.49;71.98
11077;BME280;5591;42.626;23.380;2023-04-20T13:47:18;93735.94;;;18.32;68.75
11077;BME280;5591;42.626;23.380;2023-04-20T13:49:46;93765.31;;;18.63;70.13
11077;BME280;5591;42.626;23.380;2023-04-20T13:52:13;93766.19;;;18.95;67.57